Time;durP1;ratioP1;P1;durP2;ratioP2;P2;SDS_P1;SDS_P2;PMS_P1;PMS_P2;Temp;Humidity;BMP_temperature;BMP_pressure;BME280_temperature;BME280_humidity;BME280_pressure;Samples;Min_cycle;Max_cycle;Signal;HPM_P1;HPM_P2
2024/02/27 00:00:25;;;;;;;;;;;5.90;99.90;;;-146.41;100.00;57768.22;5039132;28;1380;-66
2024/02/27 00:02:52;;;;;;;;;;;5.90;99.90;;;-146.41;100.00;57768.22;5054904;28;1435;-66
2024/02/27 00:05:19;;;;;;;;;;;5.90;99.90;;;-146.41;100.00;57768.22;5041238;28;1384;-66
2024/02/27 00:07:46;;;;;;;;;;;5.90;99.90;;;-146.41;100.00;57768.22;5042657;28;3076;-66
2024/02/27 00:10:14;;;;;;;;;;;5.90;99.90;;;-146.41;100.00;57768.22;5040199;28;1716;-67
2024/02/27 00:12:41;;;;;;;;;;;5.90;99.90;;;-146.41;100.00;57768.22;5055028;28;1474;-67
2024/02/27 00:15:08;;;;;;;;;;;5.90;99.90;;;-146.41;100.00;57768.22;5043634;28;1777;-67
2024/02/27 00:17:35;;;;;;;;;;;5.80;99.90;;;-146.41;100.00;57768.22;5042553;28;1959;-67
2024/02/27 00:20:02;;;;;;;;;;;5.70;99.90;;;-146.41;100.00;57768.22;5041252;28;1450;-66
2024/02/27 00:22:29;;;;;;;;;;;5.60;99.90;;;-146.41;100.00;57768.22;5043131;28;2635;-66
2024/02/27 00:24:56;;;;;;;;;;;5.70;99.90;;;-146.41;100.00;57768.22;5040412;28;2605;-66
2024/02/27 00:27:22;;;;;;;;;;;5.70;99.90;;;-146.41;100.00;57768.22;5040521;28;2593;-66
2024/02/27 00:29:49;;;;;;;;;;;5.60;99.90;;;-146.41;100.00;57768.22;5040528;28;1423;-67
2024/02/27 00:32:16;;;;;;;;;;;5.50;99.90;;;-146.41;100.00;57768.22;5040341;28;1440;-66
2024/02/27 00:34:43;;;;;;;;;;;5.40;99.90;;;-146.41;100.00;57768.22;5036971;28;1479;-66
2024/02/27 00:37:09;;;;;;;;;;;5.30;99.90;;;-146.41;100.00;57768.22;5041287;28;1902;-68
2024/02/27 00:39:36;;;;;;;;;;;5.30;99.90;;;-146.41;100.00;57768.22;5042399;28;2081;-66
2024/02/27 00:42:04;;;;;;;;;;;5.30;99.90;;;-146.41;100.00;57768.22;5038059;28;1424;-66
2024/02/27 00:44:31;;;;;;;;;;;5.30;99.90;;;-146.41;100.00;57768.22;5038888;28;1451;-66
2024/02/27 00:46:58;;;;;;;;;;;5.40;99.90;;;-146.41;100.00;57768.22;5040619;28;1393;-68
2024/02/27 00:49:25;;;;;;;;;;;5.40;99.90;;;-146.41;100.00;57768.22;5040880;28;1452;-68
2024/02/27 00:51:51;;;;;;;;;;;5.40;99.90;;;-146.41;100.00;57768.22;5037651;28;1442;-68
2024/02/27 00:54:18;;;;;;;;;;;5.40;99.90;;;-146.41;100.00;57768.22;5037770;28;3128;-68
2024/02/27 00:56:45;;;;;;;;;;;5.40;99.90;;;-146.41;100.00;57768.22;5040125;28;2530;-68
2024/02/27 00:59:12;;;;;;;;;;;5.40;99.90;;;-146.41;100.00;57768.22;5041330;28;2650;-68
2024/02/27 01:01:39;;;;;;;;;;;5.40;99.90;;;-146.41;100.00;57768.22;5042040;28;1511;-68
2024/02/27 01:04:05;;;;;;;;;;;5.40;99.90;;;-146.41;100.00;57768.22;5036215;28;1420;-68
2024/02/27 01:06:33;;;;;;;;;;;5.40;99.90;;;-146.41;100.00;57768.22;5041407;28;1458;-68
2024/02/27 01:09:00;;;;;;;;;;;5.40;99.90;;;-146.41;100.00;57768.22;5037749;28;1599;-68
2024/02/27 01:11:26;;;;;;;;;;;5.40;99.90;;;-146.41;100.00;57768.22;5039807;28;2053;-68
2024/02/27 01:13:53;;;;;;;;;;;5.50;99.90;;;-146.41;100.00;57768.22;5036398;28;2542;-68
2024/02/27 01:16:22;;;;;;;;;;;5.50;99.90;;;-146.41;100.00;57768.22;5041235;28;1983;-68
2024/02/27 01:18:49;;;;;;;;;;;5.50;99.90;;;-146.41;100.00;57768.22;5043311;28;1454;-67
2024/02/27 01:21:17;;;;;;;;;;;5.50;99.90;;;-146.41;100.00;57768.22;5039970;28;1457;-68
2024/02/27 01:23:43;;;;;;;;;;;5.50;99.90;;;-146.41;100.00;57768.22;5039197;28;1334;-67
2024/02/27 01:26:11;;;;;;;;;;;5.50;99.90;;;-146.41;100.00;57768.22;5043109;28;1430;-68
2024/02/27 01:28:38;;;;;;;;;;;5.50;99.90;;;-146.41;100.00;57768.22;5040390;28;2085;-68
2024/02/27 01:31:05;;;;;;;;;;;5.50;99.90;;;-146.41;100.00;57768.22;5038727;28;1310;-68
2024/02/27 01:33:32;;;;;;;;;;;5.60;99.90;;;-146.41;100.00;57768.22;5037184;28;2047;-67
2024/02/27 01:35:59;;;;;;;;;;;5.60;99.90;;;-146.41;100.00;57768.22;5040333;28;1910;-67
2024/02/27 01:38:26;;;;;;;;;;;5.50;99.90;;;-146.41;100.00;57768.22;5037974;28;1389;-67
2024/02/27 01:40:53;;;;;;;;;;;5.60;99.90;;;-146.41;100.00;57768.22;5039955;28;1611;-68
2024/02/27 01:43:23;;;;;;;;;;;5.50;99.90;;;-146.41;100.00;57768.22;5038920;28;3429;-67
2024/02/27 01:45:59;;;;;;;;;;;5.50;99.90;;;-146.41;100.00;57768.22;5051950;28;1381;-67
2024/02/27 01:48:27;;;;;;;;;;;5.40;99.90;;;-146.41;100.00;57768.22;5055556;28;1289;-67
2024/02/27 01:50:54;;;;;;;;;;;5.50;99.90;;;-146.41;100.00;57768.22;5037118;28;1320;-67
2024/02/27 01:53:20;;;;;;;;;;;5.40;99.90;;;-146.41;100.00;57768.22;5038014;28;1606;-68
2024/02/27 01:55:48;;;;;;;;;;;5.40;99.90;;;-146.41;100.00;57768.22;5056754;28;2159;-68
2024/02/27 01:58:14;;;;;;;;;;;5.40;99.90;;;-146.41;100.00;57768.22;5052957;28;1902;-67
2024/02/27 02:00:42;;;;;;;;;;;5.50;99.90;;;-146.41;100.00;57768.22;5038793;28;1308;-68
2024/02/27 02:03:08;;;;;;;;;;;5.50;99.90;;;-146.41;100.00;57768.22;5036786;28;1287;-67
2024/02/27 02:05:35;;;;;;;;;;;5.40;99.90;;;-146.41;100.00;57768.22;5050830;28;1280;-67
2024/02/27 02:08:03;;;;;;;;;;;5.40;99.90;;;-146.41;100.00;57768.22;5039885;28;1361;-68
2024/02/27 02:10:29;;;;;;;;;;;5.50;99.90;;;-146.41;100.00;57768.22;5039736;28;1981;-68
2024/02/27 02:12:56;;;;;;;;;;;5.40;99.90;;;-146.41;100.00;57768.22;5042677;28;1474;-68
2024/02/27 02:15:23;;;;;;;;;;;5.40;99.90;;;-146.41;100.00;57768.22;5055321;28;1401;-67
2024/02/27 02:17:52;;;;;;;;;;;5.50;99.90;;;-146.41;100.00;57768.22;5039462;28;1985;-68
2024/02/27 02:20:18;;;;;;;;;;;5.40;99.90;;;-146.41;100.00;57768.22;5040606;28;1445;-68
2024/02/27 02:22:45;;;;;;;;;;;5.40;99.90;;;-146.41;100.00;57768.22;5041060;28;1215;-68
2024/02/27 02:25:14;;;;;;;;;;;5.30;99.90;;;-146.41;100.00;57768.22;5042067;28;3084;-67
2024/02/27 02:27:45;;;;;;;;;;;5.30;99.90;;;-146.41;100.00;57768.22;5044328;28;2926;-68
2024/02/27 02:30:14;;;;;;;;;;;5.30;99.90;;;-146.41;100.00;57768.22;5037870;28;1449;-68
2024/02/27 02:32:51;;;;;;;;;;;5.30;99.90;;;-146.41;100.00;57768.22;5038047;28;1282;-68
2024/02/27 02:35:18;;;;;;;;;;;5.20;99.90;;;-146.41;100.00;57768.22;5036551;28;1046;-68
2024/02/27 02:37:48;;;;;;;;;;;5.10;99.90;;;-146.41;100.00;57768.22;5039310;28;1985;-68
2024/02/27 02:40:25;;;;;;;;;;;5.10;99.90;;;-146.41;100.00;57768.22;5054872;28;1481;-68
2024/02/27 02:42:52;;;;;;;;;;;5.10;99.90;;;-146.41;100.00;57768.22;5040473;28;2386;-67
2024/02/27 02:45:19;;;;;;;;;;;5.10;99.90;;;-146.41;100.00;57768.22;5043517;28;1444;-67
2024/02/27 02:47:46;;;;;;;;;;;5.10;99.90;;;-146.41;100.00;57768.22;5060575;28;1509;-68
2024/02/27 02:50:13;;;;;;;;;;;5.10;99.90;;;-146.41;100.00;57768.22;5043996;28;1570;-67
2024/02/27 02:52:40;;;;;;;;;;;5.00;99.90;;;-146.41;100.00;57768.22;5043110;28;1247;-68
2024/02/27 02:55:08;;;;;;;;;;;4.90;99.90;;;-146.41;100.00;57768.22;5040256;28;1494;-68
2024/02/27 02:57:35;;;;;;;;;;;4.90;99.90;;;-146.41;100.00;57768.22;5039027;28;2612;-67
2024/02/27 03:00:04;;;;;;;;;;;4.90;99.90;;;-146.41;100.00;57768.22;5040117;28;1382;-67
2024/02/27 03:02:30;;;;;;;;;;;4.90;99.90;;;-146.41;100.00;57768.22;5040124;28;1294;-68
2024/02/27 03:04:58;;;;;;;;;;;4.90;99.90;;;-146.41;100.00;57768.22;5041271;28;1282;-68
2024/02/27 03:07:27;;;;;;;;;;;4.90;99.90;;;-146.41;100.00;57768.22;5040268;28;1603;-67
2024/02/27 03:09:54;;;;;;;;;;;5.00;99.90;;;-146.41;100.00;57768.22;5039808;28;1615;-67
2024/02/27 03:12:22;;;;;;;;;;;5.00;99.90;;;-146.41;100.00;57768.22;5036746;28;3179;-67
2024/02/27 03:14:49;;;;;;;;;;;5.00;99.90;;;-146.41;100.00;57768.22;5042396;28;1643;-67
2024/02/27 03:17:16;;;;;;;;;;;5.00;99.90;;;-146.41;100.00;57768.22;5041643;28;1907;-68
2024/02/27 03:19:43;;;;;;;;;;;5.00;99.90;;;-146.41;100.00;57768.22;5040917;28;1657;-67
2024/02/27 03:22:10;;;;;;;;;;;5.00;99.90;;;-146.41;100.00;57768.22;5043657;28;1420;-67
2024/02/27 03:24:38;;;;;;;;;;;5.00;99.90;;;-146.41;100.00;57768.22;5040663;28;1408;-67
2024/02/27 03:27:05;;;;;;;;;;;5.10;99.90;;;-146.41;100.00;57768.22;5042418;28;2473;-67
2024/02/27 03:29:32;;;;;;;;;;;5.10;99.90;;;-146.41;100.00;57768.22;5042951;28;1330;-67
2024/02/27 03:31:59;;;;;;;;;;;5.10;99.90;;;-146.41;100.00;57768.22;5038685;28;1272;-68
2024/02/27 03:34:26;;;;;;;;;;;5.10;99.90;;;-146.41;100.00;57768.22;5041803;28;1447;-67
2024/02/27 03:36:53;;;;;;;;;;;5.20;99.90;;;-146.41;100.00;57768.22;5044425;28;1907;-68
2024/02/27 03:39:20;;;;;;;;;;;5.20;99.90;;;-146.41;100.00;57768.22;5054674;28;2061;-67
2024/02/27 03:41:47;;;;;;;;;;;5.20;99.90;;;-146.41;100.00;57768.22;5043287;28;1402;-68
2024/02/27 03:44:14;;;;;;;;;;;5.20;99.90;;;-146.41;100.00;57768.22;5039254;28;1294;-68
2024/02/27 03:46:41;;;;;;;;;;;5.20;99.90;;;-146.41;100.00;57768.22;5040209;28;1237;-67
2024/02/27 03:49:08;;;;;;;;;;;5.20;99.90;;;-146.41;100.00;57768.22;5038709;28;1294;-67
2024/02/27 03:51:35;;;;;;;;;;;5.20;99.90;;;-146.41;100.00;57768.22;5042106;28;1452;-68
2024/02/27 03:54:02;;;;;;;;;;;5.20;99.90;;;-146.41;100.00;57768.22;5040936;28;3201;-67
2024/02/27 03:56:30;;;;;;;;;;;5.20;99.90;;;-146.41;100.00;57768.22;5040579;28;1902;-67
2024/02/27 03:58:56;;;;;;;;;;;5.20;99.90;;;-146.41;100.00;57768.22;5040212;28;1529;-68
2024/02/27 04:01:23;;;;;;;;;;;5.20;99.90;;;-146.41;100.00;57768.22;5043587;28;1379;-67
2024/02/27 04:03:50;;;;;;;;;;;5.20;99.90;;;-146.41;100.00;57768.22;5042637;28;1282;-68
2024/02/27 04:06:17;;;;;;;;;;;5.10;99.90;;;-146.41;100.00;57768.22;5041240;28;1374;-67
2024/02/27 04:08:44;;;;;;;;;;;5.10;99.90;;;-146.41;100.00;57768.22;5039824;28;2049;-67
2024/02/27 04:11:11;;;;;;;;;;;5.10;99.90;;;-146.41;100.00;57768.22;5037981;28;1391;-67
2024/02/27 04:13:38;;;;;;;;;;;5.10;99.90;;;-146.41;100.00;57768.22;5041387;28;1354;-67
2024/02/27 04:16:05;;;;;;;;;;;4.90;99.90;;;-146.41;100.00;57768.22;5056728;28;1294;-68
2024/02/27 04:18:32;;;;;;;;;;;4.90;99.90;;;-146.41;100.00;57768.22;5042022;28;1989;-67
2024/02/27 04:20:59;;;;;;;;;;;4.90;99.90;;;-146.41;100.00;57768.22;5043169;28;1457;-67
2024/02/27 04:23:26;;;;;;;;;;;4.90;99.90;;;-146.41;100.00;57768.22;5039593;28;2333;-68
2024/02/27 04:25:53;;;;;;;;;;;4.90;99.90;;;-146.41;100.00;57768.22;5042859;28;2836;-68
2024/02/27 04:28:19;;;;;;;;;;;4.80;99.90;;;-146.41;100.00;57768.22;5040774;28;2872;-67
2024/02/27 04:30:46;;;;;;;;;;;4.80;99.90;;;-146.41;100.00;57768.22;5041550;28;1306;-67
2024/02/27 04:33:13;;;;;;;;;;;4.80;99.90;;;-146.41;100.00;57768.22;5043588;28;1424;-67
2024/02/27 04:35:40;;;;;;;;;;;4.70;99.90;;;-146.41;100.00;57768.22;5044130;28;3528;-68
2024/02/27 04:38:08;;;;;;;;;;;4.70;99.90;;;-146.41;100.00;57768.22;5040513;28;1910;-67
2024/02/27 04:40:35;;;;;;;;;;;4.80;99.90;;;-146.41;100.00;57768.22;5040241;28;1307;-67
2024/02/27 04:43:02;;;;;;;;;;;4.70;99.90;;;-146.41;100.00;57768.22;5038904;28;1659;-67
2024/02/27 04:45:28;;;;;;;;;;;4.70;99.90;;;-146.41;100.00;57768.22;5039470;28;1301;-67
2024/02/27 04:47:56;;;;;;;;;;;4.70;99.90;;;-146.41;100.00;57768.22;5041429;28;1349;-67
2024/02/27 04:50:23;;;;;;;;;;;4.60;99.90;;;-146.41;100.00;57768.22;5039005;28;2174;-67
2024/02/27 04:52:50;;;;;;;;;;;4.60;99.90;;;-146.41;100.00;57768.22;5039108;28;1516;-67
2024/02/27 04:55:17;;;;;;;;;;;4.60;99.90;;;-146.41;100.00;57768.22;5040382;28;1449;-67
2024/02/27 04:57:43;;;;;;;;;;;4.60;99.90;;;-146.41;100.00;57768.22;5039655;28;2696;-67
2024/02/27 05:00:11;;;;;;;;;;;4.60;99.90;;;-146.41;100.00;57768.22;5042168;28;2808;-68
2024/02/27 05:02:38;;;;;;;;;;;4.50;99.90;;;-146.41;100.00;57768.22;5037329;28;1476;-67
2024/02/27 05:05:05;;;;;;;;;;;4.50;99.90;;;-146.41;100.00;57768.22;5039017;28;1431;-66
2024/02/27 05:07:32;;;;;;;;;;;4.50;99.90;;;-146.41;100.00;57768.22;5037638;28;1226;-67
2024/02/27 05:09:59;;;;;;;;;;;4.50;99.90;;;-146.41;100.00;57768.22;5038829;28;1480;-67
2024/02/27 05:12:26;;;;;;;;;;;4.50;99.90;;;-146.41;100.00;57768.22;5037871;28;1352;-67
2024/02/27 05:14:52;;;;;;;;;;;4.50;99.90;;;-146.41;100.00;57768.22;5039879;28;2908;-67
2024/02/27 05:17:19;;;;;;;;;;;4.50;99.90;;;-146.41;100.00;57768.22;5037184;28;1906;-67
2024/02/27 05:19:46;;;;;;;;;;;4.50;99.90;;;-146.41;100.00;57768.22;5036364;28;1444;-67
2024/02/27 05:22:13;;;;;;;;;;;4.50;99.90;;;-146.41;100.00;57768.22;5043764;28;1780;-68
2024/02/27 05:24:39;;;;;;;;;;;4.50;99.90;;;-146.41;100.00;57768.22;5039736;28;1352;-67
2024/02/27 05:27:06;;;;;;;;;;;4.60;99.90;;;-146.41;100.00;57768.22;5037334;28;1399;-67
2024/02/27 05:29:33;;;;;;;;;;;4.50;99.90;;;-146.41;100.00;57768.22;5038024;28;2005;-67
2024/02/27 05:32:00;;;;;;;;;;;4.50;99.90;;;-146.41;100.00;57768.22;5037143;28;1335;-67
2024/02/27 05:34:27;;;;;;;;;;;4.50;99.90;;;-146.41;100.00;57768.22;5040734;28;1429;-68
2024/02/27 05:36:54;;;;;;;;;;;4.50;99.90;;;-146.41;100.00;57768.22;5038147;28;1341;-67
2024/02/27 05:39:21;;;;;;;;;;;4.50;99.90;;;-146.41;100.00;57768.22;5040057;28;1925;-67
2024/02/27 05:41:49;;;;;;;;;;;4.50;99.90;;;-146.41;100.00;57768.22;5039227;28;1325;-67
2024/02/27 05:44:16;;;;;;;;;;;4.50;99.90;;;-146.41;100.00;57768.22;5037450;28;1998;-67
2024/02/27 05:46:43;;;;;;;;;;;4.60;99.90;;;-146.41;100.00;57768.22;5040432;28;1432;-67
2024/02/27 05:49:09;;;;;;;;;;;4.60;99.90;;;-146.41;100.00;57768.22;5051863;28;1267;-68
2024/02/27 05:51:39;;;;;;;;;;;4.50;99.90;;;-146.41;100.00;57768.22;5039789;28;1425;-68
2024/02/27 05:54:06;;;;;;;;;;;4.50;99.90;;;-146.41;100.00;57768.22;5036339;28;1551;-68
2024/02/27 05:56:33;;;;;;;;;;;4.50;99.90;;;-146.41;100.00;57768.22;5041247;28;1282;-68
2024/02/27 05:59:00;;;;;;;;;;;4.50;99.90;;;-146.41;100.00;57768.22;5038715;28;3360;-67
2024/02/27 06:01:27;;;;;;;;;;;4.50;99.90;;;-146.41;100.00;57768.22;5036966;28;1429;-67
2024/02/27 06:03:54;;;;;;;;;;;4.50;99.90;;;-146.41;100.00;57768.22;5056386;28;1499;-68
2024/02/27 06:06:21;;;;;;;;;;;4.50;99.90;;;-146.41;100.00;57768.22;5040679;28;1555;-67
2024/02/27 06:08:48;;;;;;;;;;;4.50;99.90;;;-146.41;100.00;57768.22;5038419;28;1421;-67
2024/02/27 06:11:14;;;;;;;;;;;4.50;99.90;;;-146.41;100.00;57768.22;5037075;28;2125;-68
2024/02/27 06:13:43;;;;;;;;;;;4.40;99.90;;;-146.41;100.00;57768.22;5035322;28;1159;-67
2024/02/27 06:16:10;;;;;;;;;;;4.40;99.90;;;-146.41;100.00;57768.22;5040282;28;1337;-67
2024/02/27 06:18:41;;;;;;;;;;;4.40;99.90;;;-146.41;100.00;57768.22;5037967;28;1985;-68
2024/02/27 06:23:54;;;;;;;;;;;4.40;99.90;;;-146.41;100.00;57768.22;5037948;28;2125;-67
2024/02/27 06:26:21;;;;;;;;;;;4.40;99.90;;;-146.41;100.00;57768.22;5039332;28;2693;-68
2024/02/27 06:28:48;;;;;;;;;;;4.40;99.90;;;-146.41;100.00;57768.22;5037452;28;1397;-68
2024/02/27 06:31:15;;;;;;;;;;;4.30;99.90;;;-146.41;100.00;57768.22;5039167;28;1292;-68
2024/02/27 06:33:42;;;;;;;;;;;4.30;99.90;;;-146.41;100.00;57768.22;5041557;28;1369;-67
2024/02/27 06:36:10;;;;;;;;;;;4.30;99.90;;;-146.41;100.00;57768.22;5037908;28;979;-68
2024/02/27 06:38:37;;;;;;;;;;;4.30;99.90;;;-146.41;100.00;57768.22;5037898;28;3093;-68
2024/02/27 06:41:04;;;;;;;;;;;4.30;99.90;;;-146.41;100.00;57768.22;5039127;28;2662;-67
2024/02/27 06:43:31;;;;;;;;;;;4.30;99.90;;;-146.41;100.00;57768.22;5038916;28;1215;-68
2024/02/27 06:45:59;;;;;;;;;;;4.40;99.90;;;-146.41;100.00;57768.22;5038544;28;1223;-68
2024/02/27 06:48:28;;;;;;;;;;;4.50;99.90;;;-146.41;100.00;57768.22;5039456;28;1520;-67
2024/02/27 06:50:55;;;;;;;;;;;4.40;99.90;;;-146.41;100.00;57768.22;5037551;28;1362;-67
2024/02/27 06:53:23;;;;;;;;;;;4.50;99.90;;;-146.41;100.00;57768.22;5038165;28;2041;-67
2024/02/27 06:55:50;;;;;;;;;;;4.50;99.90;;;-146.41;100.00;57768.22;5038732;28;1582;-67
2024/02/27 06:58:17;;;;;;;;;;;4.50;99.90;;;-146.41;100.00;57768.22;5039017;28;1980;-67
2024/02/27 07:00:44;;;;;;;;;;;4.50;99.90;;;-146.41;100.00;57768.22;5038461;28;1457;-67
2024/02/27 07:03:12;;;;;;;;;;;4.50;99.90;;;-146.41;100.00;57768.22;5039880;28;1463;-67
2024/02/27 07:05:39;;;;;;;;;;;4.50;99.90;;;-146.41;100.00;57768.22;5053761;28;1179;-67
2024/02/27 07:08:19;;;;;;;;;;;4.50;99.90;;;-146.41;100.00;57768.22;5040871;28;2169;-68
2024/02/27 07:10:46;;;;;;;;;;;4.50;99.90;;;-146.41;100.00;57768.22;5052819;28;1299;-67
2024/02/27 07:13:13;;;;;;;;;;;4.50;99.90;;;-146.41;100.00;57768.22;5035453;28;2679;-67
2024/02/27 07:15:41;;;;;;;;;;;4.60;99.90;;;-146.41;100.00;57768.22;5036796;28;1138;-67
2024/02/27 07:18:09;;;;;;;;;;;4.70;99.90;;;-146.41;100.00;57768.22;5040918;28;1984;-67
2024/02/27 07:20:36;;;;;;;;;;;4.70;99.90;;;-146.41;100.00;57768.22;5036418;28;1408;-67
2024/02/27 07:23:03;;;;;;;;;;;4.70;99.90;;;-146.41;100.00;57768.22;5039968;28;1622;-67
2024/02/27 07:25:30;;;;;;;;;;;4.80;99.90;;;-146.41;100.00;57768.22;5036808;28;1209;-67
2024/02/27 07:27:56;;;;;;;;;;;4.80;99.90;;;-146.41;100.00;57768.22;5037995;28;3542;-67
2024/02/27 07:30:25;;;;;;;;;;;4.80;99.90;;;-146.41;100.00;57768.22;5045393;28;1292;-67
2024/02/27 07:32:53;;;;;;;;;;;4.90;99.90;;;-146.41;100.00;57768.22;5042988;28;1376;-67
2024/02/27 07:35:20;;;;;;;;;;;5.00;99.90;;;-146.41;100.00;57768.22;5041431;28;2663;-68
2024/02/27 07:37:47;;;;;;;;;;;5.10;99.90;;;-146.41;100.00;57768.22;5042093;28;2925;-68
2024/02/27 07:40:14;;;;;;;;;;;5.20;99.90;;;-146.41;100.00;57768.22;5038597;28;1316;-68
2024/02/27 07:42:41;;;;;;;;;;;5.30;99.90;;;-146.41;100.00;57768.22;5041600;28;1363;-68
2024/02/27 07:45:08;;;;;;;;;;;5.20;99.90;;;-146.41;100.00;57768.22;5043403;28;1187;-68
2024/02/27 07:47:35;;;;;;;;;;;5.20;99.90;;;-146.41;100.00;57768.22;5056884;28;1244;-66
2024/02/27 07:50:03;;;;;;;;;;;5.30;99.90;;;-146.41;100.00;57768.22;5041974;28;2095;-68
2024/02/27 07:52:30;;;;;;;;;;;5.40;99.90;;;-146.41;100.00;57768.22;5038755;28;1082;-68
2024/02/27 07:54:57;;;;;;;;;;;5.40;99.90;;;-146.41;100.00;57768.22;5039527;28;1299;-66
2024/02/27 07:57:24;;;;;;;;;;;5.50;99.90;;;-146.41;100.00;57768.22;5045856;28;1379;-68
2024/02/27 07:59:52;;;;;;;;;;;5.50;99.90;;;-146.41;100.00;57768.22;5040882;28;2011;-66
2024/02/27 08:02:18;;;;;;;;;;;5.50;99.90;;;-146.41;100.00;57768.22;5037489;28;1261;-66
2024/02/27 08:04:45;;;;;;;;;;;5.40;99.90;;;-146.41;100.00;57768.22;5040436;28;3277;-68
2024/02/27 08:07:12;;;;;;;;;;;5.50;99.90;;;-146.41;100.00;57768.22;5038172;28;1446;-68
2024/02/27 08:09:39;;;;;;;;;;;5.60;99.90;;;-146.41;100.00;57768.22;5038639;28;2867;-68
2024/02/27 08:12:06;;;;;;;;;;;5.60;99.90;;;-146.41;100.00;57768.22;5037541;28;1296;-68
2024/02/27 08:14:33;;;;;;;;;;;5.70;99.90;;;-146.41;100.00;57768.22;5038972;28;1141;-68
2024/02/27 08:17:01;;;;;;;;;;;5.70;99.90;;;-146.41;100.00;57768.22;5039825;28;1155;-68
2024/02/27 08:19:28;;;;;;;;;;;5.70;99.90;;;-146.41;100.00;57768.22;5037977;28;2562;-68
2024/02/27 08:22:03;;;;;;;;;;;5.80;99.90;;;-146.41;100.00;57768.22;5039909;28;1315;-67
2024/02/27 08:24:31;;;;;;;;;;;5.80;99.90;;;-146.41;100.00;57768.22;5040733;28;2736;-68
2024/02/27 08:26:58;;;;;;;;;;;5.80;99.90;;;-146.41;100.00;57768.22;5041480;28;1960;-67
2024/02/27 08:29:32;;;;;;;;;;;5.80;99.90;;;-146.41;100.00;57768.22;5041919;28;1545;-67
2024/02/27 08:31:59;;;;;;;;;;;5.80;99.90;;;-146.41;100.00;57768.22;5037616;28;2682;-68
2024/02/27 08:34:25;;;;;;;;;;;5.80;99.90;;;-146.41;100.00;57768.22;5035947;28;1355;-68
2024/02/27 08:36:52;;;;;;;;;;;5.80;99.90;;;-146.41;100.00;57768.22;5039897;28;1125;-67
2024/02/27 08:39:19;;;;;;;;;;;5.90;99.90;;;-146.41;100.00;57768.22;5039657;28;1906;-67
2024/02/27 08:41:46;;;;;;;;;;;6.00;99.90;;;-146.41;100.00;57768.22;5036266;28;1264;-68
2024/02/27 08:44:13;;;;;;;;;;;6.20;99.90;;;-146.41;100.00;57768.22;5042591;28;1064;-67
2024/02/27 08:46:42;;;;;;;;;;;6.50;99.90;;;-146.41;100.00;57768.22;5039691;28;3764;-68
2024/02/27 08:49:10;;;;;;;;;;;6.60;99.90;;;-146.41;100.00;57768.22;5041508;28;2707;-68
2024/02/27 08:51:36;;;;;;;;;;;6.80;99.90;;;-146.41;100.00;57768.22;5044446;28;2720;-68
2024/02/27 08:54:03;;;;;;;;;;;7.20;99.90;;;-146.41;100.00;57768.22;5042023;28;1056;-68
2024/02/27 08:56:31;;;;;;;;;;;;;;;-146.41;100.00;57768.22;5038046;28;2613;-68
2024/02/27 08:58:58;;;;;;;;;;;8.20;99.90;;;-146.41;100.00;57768.22;5042854;28;1989;-68
2024/02/27 09:01:24;;;;;;;;;;;8.20;99.90;;;-146.41;100.00;57768.22;5036767;28;1296;-67
2024/02/27 09:03:51;;;;;;;;;;;8.00;99.90;;;-146.41;100.00;57768.22;5039254;28;1053;-68
2024/02/27 09:06:18;;;;;;;;;;;7.40;99.90;;;-146.41;100.00;57768.22;5039710;28;1316;-68
2024/02/27 09:08:45;;;;;;;;;;;7.30;99.90;;;-146.41;100.00;57768.22;5035669;28;1188;-68
2024/02/27 09:11:12;;;;;;;;;;;7.10;99.90;;;-146.41;100.00;57768.22;5036620;28;2537;-68
2024/02/27 09:13:39;;;;;;;;;;;6.90;99.90;;;-146.41;100.00;57768.22;5036796;28;1093;-68
2024/02/27 09:16:06;;;;;;;;;;;7.20;99.90;;;-146.41;100.00;57768.22;5040855;28;1410;-67
2024/02/27 09:18:35;;;;;;;;;;;7.30;99.90;;;-146.41;100.00;57768.22;5044275;28;1975;-68
2024/02/27 09:21:02;;;;;;;;;;;7.50;99.90;;;-146.41;100.00;57768.22;5037309;28;1276;-68
2024/02/27 09:23:29;;;;;;;;;;;7.70;99.90;;;-146.41;100.00;57768.22;5037878;28;2080;-67
2024/02/27 09:25:56;;;;;;;;;;;7.60;99.90;;;-146.41;100.00;57768.22;5039432;28;1058;-68
2024/02/27 09:28:23;;;;;;;;;;;7.70;99.90;;;-146.41;100.00;57768.22;5038074;28;993;-68
2024/02/27 09:30:50;;;;;;;;;;;7.50;99.90;;;-146.41;100.00;57768.22;5051471;28;1383;-68
2024/02/27 09:33:17;;;;;;;;;;;7.60;99.90;;;-146.41;100.00;57768.22;5021651;28;1252;-67
2024/02/27 09:35:45;;;;;;;;;;;7.70;99.90;;;-146.41;100.00;57768.22;5039426;28;1150;-68
2024/02/27 09:38:11;;;;;;;;;;;7.30;99.90;;;-146.41;100.00;57768.22;5039008;28;3256;-68
2024/02/27 09:40:41;;;;;;;;;;;7.40;99.90;;;-146.41;100.00;57768.22;5043346;28;1340;-68
2024/02/27 09:43:13;;;;;;;;;;;7.60;99.90;;;-146.41;100.00;57768.22;5035550;28;1181;-68
2024/02/27 09:45:41;;;;;;;;;;;7.60;99.90;;;-146.41;100.00;57768.22;5054088;28;1355;-68
2024/02/27 09:48:08;;;;;;;;;;;7.70;99.90;;;-146.41;100.00;57768.22;5052728;28;2391;-67
2024/02/27 09:50:35;;;;;;;;;;;7.80;99.90;;;-146.41;100.00;57768.22;5040028;28;2705;-68
2024/02/27 09:53:02;;;;;;;;;;;7.80;99.90;;;-146.41;100.00;57768.22;5053629;28;1066;-67
2024/02/27 09:55:29;;;;;;;;;;;7.90;99.90;;;-146.41;100.00;57768.22;5036189;28;967;-67
2024/02/27 09:57:58;;;;;;;;;;;7.90;99.90;;;-146.41;100.00;57768.22;5036858;28;1233;-67
2024/02/27 10:00:25;;;;;;;;;;;8.10;99.90;;;-146.41;100.00;57768.22;5034763;28;1982;-67
2024/02/27 10:02:52;;;;;;;;;;;8.10;99.90;;;-146.41;100.00;57768.22;5036035;28;1133;-67
2024/02/27 10:05:21;;;;;;;;;;;8.10;99.90;;;-146.41;100.00;57768.22;5052910;28;1256;-67
2024/02/27 10:07:50;;;;;;;;;;;8.20;99.90;;;-146.41;100.00;57768.22;5038451;28;1458;-68
2024/02/27 10:10:17;;;;;;;;;;;8.20;99.90;;;-146.41;100.00;57768.22;5039411;28;1371;-67
2024/02/27 10:12:44;;;;;;;;;;;8.30;99.90;;;-146.41;100.00;57768.22;5039937;28;1218;-68
2024/02/27 10:15:11;;;;;;;;;;;8.30;99.90;;;-146.41;100.00;57768.22;5037228;28;2573;-68
2024/02/27 10:17:39;;;;;;;;;;;8.30;99.90;;;-146.41;100.00;57768.22;5054481;28;1089;-69
2024/02/27 10:20:10;;;;;;;;;;;8.50;99.90;;;-146.41;100.00;57768.22;5040941;28;1895;-68
2024/02/27 10:22:41;;;;;;;;;;;8.60;99.90;;;-146.41;100.00;57768.22;5038002;28;3802;-67
2024/02/27 10:25:11;;;;;;;;;;;8.60;99.90;;;-146.41;100.00;57768.22;5039875;28;1384;-68
2024/02/27 10:27:41;;;;;;;;;;;8.80;99.90;;;-146.41;100.00;57768.22;5037686;28;1107;-68
2024/02/27 10:30:09;;;;;;;;;;;9.00;99.90;;;-146.41;100.00;57768.22;5036165;28;2486;-68
2024/02/27 10:32:36;;;;;;;;;;;9.10;99.90;;;-146.41;100.00;57768.22;5038237;28;1125;-68
2024/02/27 10:35:03;;;;;;;;;;;9.20;99.90;;;-146.41;100.00;57768.22;5037656;28;1228;-68
2024/02/27 10:37:35;;;;;;;;;;;9.10;99.90;;;-146.41;100.00;57768.22;5043896;28;1048;-67
2024/02/27 10:40:07;;;;;;;;;;;9.20;99.90;;;-146.41;100.00;57768.22;5036898;28;1964;-68
2024/02/27 10:42:36;;;;;;;;;;;9.20;99.90;;;-146.41;100.00;57768.22;5036017;28;1078;-68
2024/02/27 10:45:05;;;;;;;;;;;9.20;99.90;;;-146.41;100.00;57768.22;5037966;28;2505;-68
2024/02/27 10:47:32;;;;;;;;;;;9.20;99.90;;;-146.41;100.00;57768.22;5038056;28;1282;-68
2024/02/27 10:50:02;;;;;;;;;;;9.50;99.90;;;-146.41;100.00;57768.22;5038011;28;1361;-67
2024/02/27 10:52:30;;;;;;;;;;;9.50;99.90;;;-146.41;100.00;57768.22;5041854;28;1173;-68
2024/02/27 10:54:58;;;;;;;;;;;9.20;99.90;;;-146.41;100.00;57768.22;5037483;28;1040;-69
2024/02/27 10:57:27;;;;;;;;;;;9.20;99.90;;;-146.41;100.00;57768.22;5037797;28;2545;-68
2024/02/27 10:59:54;;;;;;;;;;;9.20;99.90;;;-146.41;100.00;57768.22;5037115;28;2540;-68
2024/02/27 11:02:21;;;;;;;;;;;9.20;99.90;;;-146.41;100.00;57768.22;5038470;28;3688;-68
2024/02/27 11:04:51;;;;;;;;;;;9.30;99.90;;;-146.41;100.00;57768.22;5038727;28;1061;-68
2024/02/27 11:07:18;;;;;;;;;;;9.30;99.90;;;-146.41;100.00;57768.22;5055902;28;1222;-68
2024/02/27 11:09:45;;;;;;;;;;;9.30;99.90;;;-146.41;100.00;57768.22;5042763;28;1191;-68
2024/02/27 11:12:16;;;;;;;;;;;9.20;99.90;;;-146.41;100.00;57768.22;5043917;28;1287;-68